Nouasseur, Morocco
Current Conditions -  °F | °C
As of 4:30 PM on Thursday 23 Oct 2014 (Local Time) from GMMN Reporting Station
Clear Clear  
Wind Chill: 88°   Ceiling: Unl
Heat Index: 88°   Visibility: 6mi
Dew Point: 61°   Wind: 13mph
Humidity: 40%   Direction: 330°NNW
Pressure: 29.97"   Gusts: NA
Location:  33.37°N, 7.58°W
Report Text: GMMN 231530Z 33011KT CAVOK 31/16 Q1015 NOSIG
Loading
Personal Weather Stations






























Interactive Weather Map
Tropical Storm Tracking
New forecast layout! Learn more

10-Day Weather Forecast

Advertisements
Track Severe Weather on mobile